EJU1923 LFBD-EDDB
Flight info
| Callsign | EJU1923 |
|---|---|
| Flight time | 1h 50m |
| Altitude | 34000 |
| Route | CNA DCT ADABI DCT BOKNO DCT DIBES/N0434F360 DCT VIQAQ DCT TSU DCT OQQAL DCT RANUX/N0436F370 DCT VALEK DCT LIPNI UN858 LIMGO DCT MASEK T278 KLF KLF1R |
| Aircraft | A320/M-SDE2E3FGHIJ1RWXYZ/LB1 |
Departure
| Time | 2026-05-07 17:47 |
|---|---|
| Airport | Bordeaux–Mérignac Airport (LFBD) |
Arrival
| Time | 2026-05-07 19:37 |
|---|---|
| Airport | Berlin Brandenburg Airport (EDDB) |
| Time | Latitude | Longitude | Altitude | Speed | Heading |
|---|---|---|---|---|---|
| 2026-05-07 17:16 | 44.83222 | -0.70310 | 167 ft | 0 kts | 117° |
| 2026-05-07 17:22 | 44.83222 | -0.70311 | 167 ft | 0 kts | 117° |
| 2026-05-07 17:38 | 44.83232 | -0.70339 | 167 ft | 4 kts | 117° |
| 2026-05-07 17:38 | 44.83242 | -0.70367 | 166 ft | 4 kts | 120° |
| 2026-05-07 17:39 | 44.83259 | -0.70391 | 166 ft | 4 kts | 174° |
| 2026-05-07 17:39 | 44.83279 | -0.70380 | 166 ft | 4 kts | 225° |
| 2026-05-07 17:39 | 44.83288 | -0.70368 | 166 ft | 0 kts | 225° |
| 2026-05-07 17:41 | 44.83273 | -0.70388 | 166 ft | 10 kts | 225° |
| 2026-05-07 17:42 | 44.83222 | -0.70456 | 166 ft | 9 kts | 223° |
| 2026-05-07 17:42 | 44.83201 | -0.70523 | 167 ft | 7 kts | 271° |
| 2026-05-07 17:42 | 44.83197 | -0.70595 | 167 ft | 13 kts | 255° |
| 2026-05-07 17:42 | 44.83113 | -0.70731 | 168 ft | 19 kts | 225° |
| 2026-05-07 17:43 | 44.83020 | -0.70857 | 169 ft | 18 kts | 221° |
| 2026-05-07 17:43 | 44.82938 | -0.70971 | 170 ft | 15 kts | 227° |
| 2026-05-07 17:43 | 44.82871 | -0.71072 | 170 ft | 13 kts | 226° |
| 2026-05-07 17:43 | 44.82816 | -0.71159 | 169 ft | 12 kts | 228° |
| 2026-05-07 17:44 | 44.82737 | -0.71267 | 170 ft | 16 kts | 225° |
| 2026-05-07 17:44 | 44.82668 | -0.71368 | 170 ft | 13 kts | 226° |
| 2026-05-07 17:44 | 44.82607 | -0.71454 | 170 ft | 12 kts | 225° |
| 2026-05-07 17:44 | 44.82529 | -0.71564 | 170 ft | 19 kts | 225° |
| 2026-05-07 17:45 | 44.82440 | -0.71691 | 170 ft | 17 kts | 226° |
| 2026-05-07 17:45 | 44.82363 | -0.71809 | 170 ft | 15 kts | 229° |
| 2026-05-07 17:45 | 44.82276 | -0.71927 | 170 ft | 21 kts | 223° |
| 2026-05-07 17:45 | 44.82173 | -0.72073 | 170 ft | 21 kts | 226° |
| 2026-05-07 17:46 | 44.82089 | -0.72236 | 170 ft | 20 kts | 255° |
| 2026-05-07 17:46 | 44.82093 | -0.72422 | 169 ft | 18 kts | 294° |
| 2026-05-07 17:46 | 44.82159 | -0.72517 | 172 ft | 10 kts | 352° |
| 2026-05-07 17:46 | 44.82241 | -0.72430 | 170 ft | 35 kts | 44° |
| 2026-05-07 17:47 | 44.82586 | -0.71932 | 172 ft | 103 kts | 45° |
| 2026-05-07 17:47 | 44.83223 | -0.71023 | 170 ft | 155 kts | 45° |
| 2026-05-07 17:47 | 44.84010 | -0.69895 | 709 ft | 158 kts | 48° |
| 2026-05-07 17:47 | 44.84784 | -0.68794 | 1442 ft | 158 kts | 47° |
| 2026-05-07 17:48 | 44.85630 | -0.67583 | 1603 ft | 192 kts | 47° |
| 2026-05-07 17:48 | 44.86623 | -0.66142 | 1866 ft | 216 kts | 48° |
| 2026-05-07 17:48 | 44.87713 | -0.64540 | 2221 ft | 242 kts | 48° |
| 2026-05-07 17:48 | 44.88934 | -0.62776 | 2871 ft | 255 kts | 46° |
| 2026-05-07 17:49 | 44.90197 | -0.60996 | 3699 ft | 261 kts | 46° |
| 2026-05-07 17:49 | 44.91502 | -0.59187 | 4563 ft | 264 kts | 46° |
| 2026-05-07 17:49 | 44.92857 | -0.57420 | 5362 ft | 270 kts | 36° |
| 2026-05-07 17:49 | 44.94559 | -0.56277 | 6162 ft | 274 kts | 14° |
| 2026-05-07 17:50 | 44.96458 | -0.55980 | 6944 ft | 277 kts | 357° |
| 2026-05-07 17:50 | 44.98384 | -0.56031 | 7676 ft | 284 kts | 359° |
| 2026-05-07 17:50 | 45.00375 | -0.55909 | 8463 ft | 287 kts | 2° |
| 2026-05-07 17:50 | 45.02371 | -0.55732 | 9335 ft | 289 kts | 1° |
| 2026-05-07 17:51 | 45.04378 | -0.55593 | 10170 ft | 291 kts | 1° |
| 2026-05-07 17:51 | 45.06473 | -0.55473 | 10452 ft | 313 kts | 1° |
| 2026-05-07 17:51 | 45.08723 | -0.55352 | 10745 ft | 332 kts | 1° |
| 2026-05-07 17:51 | 45.11062 | -0.55221 | 11338 ft | 340 kts | 1° |
| 2026-05-07 17:52 | 45.13443 | -0.55074 | 12009 ft | 345 kts | 3° |
| 2026-05-07 17:52 | 45.15831 | -0.54502 | 12667 ft | 352 kts | 14° |
| 2026-05-07 17:52 | 45.18180 | -0.53432 | 13333 ft | 357 kts | 17° |
| 2026-05-07 17:52 | 45.20557 | -0.52326 | 13953 ft | 362 kts | 17° |
| 2026-05-07 17:53 | 45.22963 | -0.51211 | 14543 ft | 365 kts | 17° |
| 2026-05-07 17:53 | 45.25390 | -0.50088 | 15150 ft | 369 kts | 17° |
| 2026-05-07 17:53 | 45.27842 | -0.48952 | 15763 ft | 372 kts | 17° |
| 2026-05-07 17:53 | 45.30315 | -0.47800 | 16370 ft | 376 kts | 17° |
| 2026-05-07 17:54 | 45.32807 | -0.46639 | 16976 ft | 379 kts | 17° |
| 2026-05-07 17:54 | 45.35327 | -0.45470 | 17573 ft | 382 kts | 17° |
| 2026-05-07 17:54 | 45.37866 | -0.44294 | 18160 ft | 386 kts | 17° |
| 2026-05-07 17:54 | 45.40432 | -0.43108 | 18669 ft | 389 kts | 17° |
| 2026-05-07 17:55 | 45.43019 | -0.41909 | 19164 ft | 392 kts | 17° |
| 2026-05-07 17:55 | 45.45620 | -0.40696 | 19680 ft | 395 kts | 17° |
| 2026-05-07 17:55 | 45.48245 | -0.39469 | 20184 ft | 398 kts | 17° |
| 2026-05-07 17:55 | 45.50886 | -0.38232 | 20679 ft | 401 kts | 17° |
| 2026-05-07 17:56 | 45.53545 | -0.36988 | 21164 ft | 404 kts | 17° |
| 2026-05-07 17:56 | 45.56226 | -0.35735 | 21637 ft | 407 kts | 17° |
| 2026-05-07 17:56 | 45.58923 | -0.34471 | 22108 ft | 410 kts | 17° |
| 2026-05-07 17:56 | 45.61641 | -0.33196 | 22573 ft | 413 kts | 17° |
| 2026-05-07 17:57 | 45.64374 | -0.31897 | 23033 ft | 416 kts | 19° |
| 2026-05-07 17:57 | 45.66141 | -0.30818 | 23313 ft | 419 kts | 26° |
| 2026-05-07 17:57 | 45.69486 | -0.27916 | 23843 ft | 423 kts | 32° |
| 2026-05-07 17:57 | 45.71967 | -0.25626 | 24210 ft | 425 kts | 32° |
| 2026-05-07 17:58 | 45.74462 | -0.23338 | 24581 ft | 428 kts | 32° |
| 2026-05-07 17:58 | 45.76977 | -0.21037 | 24944 ft | 430 kts | 32° |
| 2026-05-07 17:58 | 45.79503 | -0.18719 | 25293 ft | 432 kts | 32° |
| 2026-05-07 17:58 | 45.82040 | -0.16383 | 25653 ft | 435 kts | 32° |
| 2026-05-07 17:59 | 45.84593 | -0.14029 | 26003 ft | 438 kts | 32° |
| 2026-05-07 17:59 | 45.87128 | -0.11691 | 26341 ft | 440 kts | 32° |
| 2026-05-07 17:59 | 45.89742 | -0.09276 | 26696 ft | 442 kts | 32° |
| 2026-05-07 17:59 | 45.92338 | -0.06871 | 27027 ft | 445 kts | 32° |
| 2026-05-07 18:00 | 45.94909 | -0.04488 | 27353 ft | 447 kts | 32° |
| 2026-05-07 18:00 | 45.97530 | -0.02053 | 27689 ft | 450 kts | 32° |
| 2026-05-07 18:00 | 46.00164 | 0.00397 | 28014 ft | 452 kts | 32° |
| 2026-05-07 18:00 | 46.02813 | 0.02863 | 28322 ft | 455 kts | 32° |
| 2026-05-07 18:01 | 46.05476 | 0.05345 | 28639 ft | 457 kts | 32° |
| 2026-05-07 18:01 | 46.08156 | 0.07846 | 28945 ft | 460 kts | 32° |
| 2026-05-07 18:01 | 46.10850 | 0.10362 | 29253 ft | 462 kts | 32° |
| 2026-05-07 18:01 | 46.13554 | 0.12891 | 29549 ft | 465 kts | 32° |
| 2026-05-07 18:02 | 46.19001 | 0.17989 | 30127 ft | 469 kts | 32° |
| 2026-05-07 18:02 | 46.21741 | 0.20560 | 30359 ft | 471 kts | 32° |
| 2026-05-07 18:02 | 46.24505 | 0.23109 | 30594 ft | 472 kts | 28° |
| 2026-05-07 18:03 | 46.27442 | 0.25238 | 30817 ft | 473 kts | 24° |
| 2026-05-07 18:03 | 46.30411 | 0.27310 | 31104 ft | 473 kts | 24° |
| 2026-05-07 18:03 | 46.33376 | 0.29373 | 31425 ft | 473 kts | 24° |
| 2026-05-07 18:03 | 46.36343 | 0.31440 | 31747 ft | 473 kts | 24° |
| 2026-05-07 18:04 | 46.39302 | 0.33505 | 32061 ft | 472 kts | 24° |
| 2026-05-07 18:04 | 46.42262 | 0.35577 | 32373 ft | 472 kts | 24° |
| 2026-05-07 18:04 | 46.45221 | 0.37650 | 32678 ft | 472 kts | 24° |
| 2026-05-07 18:04 | 46.48180 | 0.39726 | 32972 ft | 473 kts | 24° |
| 2026-05-07 18:05 | 46.51141 | 0.41805 | 33269 ft | 473 kts | 24° |
| 2026-05-07 18:05 | 46.54097 | 0.43889 | 33554 ft | 473 kts | 24° |
| 2026-05-07 18:05 | 46.57059 | 0.45977 | 33851 ft | 473 kts | 24° |
| 2026-05-07 18:05 | 46.60028 | 0.48073 | 33979 ft | 476 kts | 24° |
| 2026-05-07 18:06 | 46.63021 | 0.50204 | 33979 ft | 482 kts | 24° |
| 2026-05-07 18:06 | 46.69057 | 0.54538 | 33982 ft | 484 kts | 24° |
| 2026-05-07 18:07 | 46.75102 | 0.58892 | 33968 ft | 485 kts | 24° |
| 2026-05-07 18:07 | 46.81140 | 0.63241 | 33992 ft | 485 kts | 24° |
| 2026-05-07 18:08 | 46.87194 | 0.67597 | 33989 ft | 484 kts | 24° |
| 2026-05-07 18:08 | 46.93190 | 0.71929 | 33978 ft | 484 kts | 24° |
| 2026-05-07 18:09 | 46.99266 | 0.76347 | 33978 ft | 484 kts | 24° |
| 2026-05-07 18:09 | 47.05255 | 0.80699 | 33981 ft | 484 kts | 24° |
| 2026-05-07 18:10 | 47.11277 | 0.85081 | 33986 ft | 483 kts | 24° |
| 2026-05-07 18:10 | 47.17297 | 0.89481 | 33989 ft | 483 kts | 24° |
| 2026-05-07 18:11 | 47.23309 | 0.93887 | 33993 ft | 483 kts | 24° |
| 2026-05-07 18:11 | 47.29309 | 0.98311 | 33998 ft | 482 kts | 24° |
| 2026-05-07 18:12 | 47.35312 | 1.02737 | 34001 ft | 482 kts | 24° |
| 2026-05-07 18:12 | 47.41304 | 1.07162 | 33996 ft | 482 kts | 24° |
| 2026-05-07 18:13 | 47.47298 | 1.11583 | 33997 ft | 481 kts | 24° |
| 2026-05-07 18:13 | 47.53282 | 1.16025 | 34000 ft | 481 kts | 24° |
| 2026-05-07 18:14 | 47.59256 | 1.20481 | 33994 ft | 481 kts | 25° |
| 2026-05-07 18:14 | 47.65221 | 1.24947 | 33999 ft | 480 kts | 24° |
| 2026-05-07 18:15 | 47.71180 | 1.29403 | 33999 ft | 480 kts | 24° |
| 2026-05-07 18:15 | 47.77132 | 1.33864 | 34002 ft | 479 kts | 25° |
| 2026-05-07 18:16 | 47.83083 | 1.38326 | 34005 ft | 478 kts | 24° |
| 2026-05-07 18:16 | 47.89013 | 1.42788 | 34011 ft | 477 kts | 25° |
| 2026-05-07 18:17 | 47.94935 | 1.47263 | 34010 ft | 477 kts | 25° |
| 2026-05-07 18:17 | 48.00840 | 1.51743 | 34012 ft | 476 kts | 25° |
| 2026-05-07 18:18 | 48.06739 | 1.56221 | 34012 ft | 475 kts | 25° |
| 2026-05-07 18:18 | 48.12630 | 1.60724 | 34010 ft | 475 kts | 25° |
| 2026-05-07 18:19 | 48.17512 | 1.64481 | 34012 ft | 475 kts | 25° |
| 2026-05-07 18:19 | 48.23332 | 1.69031 | 34014 ft | 474 kts | 26° |
| 2026-05-07 18:20 | 48.29173 | 1.73624 | 34019 ft | 473 kts | 26° |
| 2026-05-07 18:20 | 48.35020 | 1.78217 | 34019 ft | 473 kts | 26° |
| 2026-05-07 18:21 | 48.40839 | 1.82799 | 34026 ft | 472 kts | 26° |
| 2026-05-07 18:21 | 48.46652 | 1.87388 | 34027 ft | 471 kts | 26° |
| 2026-05-07 18:22 | 48.52452 | 1.91972 | 34035 ft | 471 kts | 26° |
| 2026-05-07 18:22 | 48.58241 | 1.96566 | 34037 ft | 470 kts | 26° |
| 2026-05-07 18:23 | 48.63995 | 2.01139 | 34035 ft | 470 kts | 26° |
| 2026-05-07 18:23 | 48.69750 | 2.05827 | 34036 ft | 470 kts | 32° |
| 2026-05-07 18:23 | 48.72335 | 2.08853 | 34034 ft | 472 kts | 43° |
| 2026-05-07 18:24 | 48.74513 | 2.12559 | 34037 ft | 472 kts | 53° |
| 2026-05-07 18:24 | 48.76217 | 2.16804 | 34024 ft | 472 kts | 64° |
| 2026-05-07 18:24 | 48.77398 | 2.21446 | 34019 ft | 472 kts | 75° |
| 2026-05-07 18:25 | 48.79142 | 2.31032 | 34015 ft | 472 kts | 75° |
| 2026-05-07 18:25 | 48.80860 | 2.40651 | 34012 ft | 472 kts | 75° |
| 2026-05-07 18:26 | 48.82573 | 2.50280 | 34014 ft | 473 kts | 75° |
| 2026-05-07 18:26 | 48.84281 | 2.59920 | 34039 ft | 473 kts | 75° |
| 2026-05-07 18:27 | 48.85974 | 2.69567 | 34042 ft | 473 kts | 75° |
| 2026-05-07 18:27 | 48.87667 | 2.79226 | 34038 ft | 473 kts | 75° |
| 2026-05-07 18:28 | 48.89349 | 2.88884 | 34043 ft | 473 kts | 75° |
| 2026-05-07 18:28 | 48.91026 | 2.98559 | 34043 ft | 473 kts | 75° |
| 2026-05-07 18:29 | 48.92693 | 3.08232 | 34049 ft | 473 kts | 75° |
| 2026-05-07 18:29 | 48.94348 | 3.17908 | 34051 ft | 473 kts | 76° |
| 2026-05-07 18:30 | 48.95991 | 3.27524 | 34050 ft | 473 kts | 76° |
| 2026-05-07 18:30 | 48.97636 | 3.37211 | 34049 ft | 473 kts | 76° |
| 2026-05-07 18:31 | 48.99271 | 3.46899 | 34054 ft | 472 kts | 76° |
| 2026-05-07 18:31 | 49.00897 | 3.56590 | 34053 ft | 472 kts | 76° |
| 2026-05-07 18:32 | 49.02518 | 3.66290 | 34053 ft | 472 kts | 76° |
| 2026-05-07 18:32 | 49.04127 | 3.75998 | 34047 ft | 473 kts | 76° |
| 2026-05-07 18:33 | 49.05723 | 3.85713 | 34048 ft | 473 kts | 76° |
| 2026-05-07 18:33 | 49.07313 | 3.95444 | 34047 ft | 473 kts | 76° |
| 2026-05-07 18:34 | 49.08903 | 4.05169 | 34048 ft | 473 kts | 76° |
| 2026-05-07 18:34 | 49.10483 | 4.14910 | 34046 ft | 473 kts | 76° |
| 2026-05-07 18:35 | 49.12045 | 4.24656 | 34047 ft | 473 kts | 76° |
| 2026-05-07 18:35 | 49.13607 | 4.34407 | 34047 ft | 473 kts | 74° |
| 2026-05-07 18:36 | 49.15949 | 4.43761 | 34047 ft | 472 kts | 66° |
| 2026-05-07 18:36 | 49.18480 | 4.53017 | 34051 ft | 472 kts | 67° |
| 2026-05-07 18:37 | 49.20990 | 4.62302 | 34057 ft | 472 kts | 67° |
| 2026-05-07 18:37 | 49.23482 | 4.71587 | 34057 ft | 472 kts | 67° |
| 2026-05-07 18:38 | 49.25971 | 4.80885 | 34064 ft | 472 kts | 67° |
| 2026-05-07 18:38 | 49.28439 | 4.90137 | 34065 ft | 472 kts | 67° |
| 2026-05-07 18:39 | 49.30916 | 4.99459 | 34061 ft | 473 kts | 67° |
| 2026-05-07 18:39 | 49.32152 | 5.04120 | 34264 ft | 472 kts | 67° |
| 2026-05-07 18:39 | 49.33386 | 5.08781 | 34499 ft | 472 kts | 67° |
| 2026-05-07 18:39 | 49.34615 | 5.13452 | 34739 ft | 472 kts | 68° |
| 2026-05-07 18:40 | 49.35838 | 5.18131 | 34959 ft | 473 kts | 68° |
| 2026-05-07 18:40 | 49.38273 | 5.27515 | 35060 ft | 473 kts | 68° |
| 2026-05-07 18:41 | 49.40688 | 5.36914 | 35061 ft | 473 kts | 68° |
| 2026-05-07 18:41 | 49.43105 | 5.46316 | 35060 ft | 473 kts | 68° |
| 2026-05-07 18:42 | 49.45516 | 5.55723 | 35056 ft | 473 kts | 68° |
| 2026-05-07 18:42 | 49.47915 | 5.65135 | 35063 ft | 473 kts | 68° |
| 2026-05-07 18:43 | 49.50304 | 5.74544 | 35060 ft | 472 kts | 68° |
| 2026-05-07 18:43 | 49.52686 | 5.83969 | 35057 ft | 472 kts | 68° |
| 2026-05-07 18:44 | 49.55056 | 5.93392 | 35058 ft | 472 kts | 68° |
| 2026-05-07 18:44 | 49.57423 | 6.02821 | 35057 ft | 472 kts | 68° |
| 2026-05-07 18:45 | 49.59779 | 6.12267 | 35063 ft | 472 kts | 68° |
| 2026-05-07 18:45 | 49.62125 | 6.21719 | 35061 ft | 470 kts | 68° |
| 2026-05-07 18:45 | 49.63278 | 6.26375 | 35056 ft | 459 kts | 68° |
| 2026-05-07 18:46 | 49.64636 | 6.30781 | 35058 ft | 453 kts | 60° |
| 2026-05-07 18:46 | 49.67633 | 6.39298 | 35059 ft | 451 kts | 60° |
| 2026-05-07 18:47 | 49.70604 | 6.47806 | 35061 ft | 450 kts | 60° |
| 2026-05-07 18:47 | 49.73564 | 6.56334 | 35064 ft | 450 kts | 61° |
| 2026-05-07 18:48 | 49.76522 | 6.64858 | 35054 ft | 450 kts | 61° |
| 2026-05-07 18:48 | 49.79476 | 6.73382 | 35049 ft | 449 kts | 61° |
| 2026-05-07 18:49 | 49.82421 | 6.81914 | 35046 ft | 449 kts | 61° |
| 2026-05-07 18:49 | 49.85346 | 6.90448 | 35047 ft | 449 kts | 61° |
| 2026-05-07 18:50 | 49.88249 | 6.98939 | 35054 ft | 448 kts | 61° |
| 2026-05-07 18:50 | 49.91161 | 7.07482 | 35049 ft | 448 kts | 61° |
| 2026-05-07 18:51 | 49.94068 | 7.16034 | 35046 ft | 448 kts | 61° |
| 2026-05-07 18:51 | 49.96971 | 7.24584 | 35047 ft | 447 kts | 61° |
| 2026-05-07 18:52 | 49.99672 | 7.33277 | 35047 ft | 448 kts | 66° |
| 2026-05-07 18:52 | 50.02010 | 7.42254 | 35047 ft | 448 kts | 68° |
| 2026-05-07 18:53 | 50.04279 | 7.51254 | 35054 ft | 448 kts | 68° |
| 2026-05-07 18:53 | 50.06552 | 7.60279 | 35058 ft | 447 kts | 68° |
| 2026-05-07 18:54 | 50.08840 | 7.69280 | 35060 ft | 447 kts | 68° |
| 2026-05-07 18:54 | 50.11132 | 7.78293 | 35066 ft | 447 kts | 68° |
| 2026-05-07 18:55 | 50.13408 | 7.87301 | 35067 ft | 447 kts | 68° |
| 2026-05-07 18:55 | 50.15669 | 7.96336 | 35067 ft | 447 kts | 68° |
| 2026-05-07 18:56 | 50.17925 | 8.05364 | 35065 ft | 447 kts | 68° |
| 2026-05-07 18:56 | 50.20177 | 8.14407 | 35067 ft | 447 kts | 68° |
| 2026-05-07 18:57 | 50.22421 | 8.23449 | 35072 ft | 447 kts | 68° |
| 2026-05-07 18:57 | 50.24653 | 8.32499 | 35075 ft | 447 kts | 68° |
| 2026-05-07 18:58 | 50.26884 | 8.41562 | 35079 ft | 447 kts | 68° |
| 2026-05-07 18:58 | 50.29099 | 8.50612 | 35091 ft | 446 kts | 68° |
| 2026-05-07 18:59 | 50.31313 | 8.59682 | 35092 ft | 446 kts | 68° |
| 2026-05-07 18:59 | 50.33523 | 8.68756 | 35091 ft | 446 kts | 68° |
| 2026-05-07 19:00 | 50.35718 | 8.77832 | 35090 ft | 446 kts | 68° |
| 2026-05-07 19:00 | 50.37904 | 8.86912 | 35090 ft | 446 kts | 68° |
| 2026-05-07 19:01 | 50.40072 | 8.95952 | 35087 ft | 446 kts | 69° |
| 2026-05-07 19:01 | 50.42251 | 9.05041 | 35086 ft | 446 kts | 68° |
| 2026-05-07 19:02 | 50.44421 | 9.14148 | 35095 ft | 446 kts | 69° |
| 2026-05-07 19:02 | 50.46575 | 9.23269 | 35093 ft | 446 kts | 69° |
| 2026-05-07 19:03 | 50.48732 | 9.32394 | 35095 ft | 446 kts | 69° |
| 2026-05-07 19:03 | 50.50875 | 9.41504 | 35096 ft | 446 kts | 69° |
| 2026-05-07 19:04 | 50.53020 | 9.50655 | 35100 ft | 446 kts | 69° |
| 2026-05-07 19:04 | 50.55152 | 9.59805 | 35102 ft | 446 kts | 69° |
| 2026-05-07 19:05 | 50.57276 | 9.68966 | 35107 ft | 446 kts | 69° |
| 2026-05-07 19:05 | 50.59391 | 9.78127 | 35110 ft | 446 kts | 69° |
| 2026-05-07 19:06 | 50.61503 | 9.87299 | 35112 ft | 445 kts | 69° |
| 2026-05-07 19:06 | 50.63634 | 9.96597 | 35096 ft | 458 kts | 70° |
| 2026-05-07 19:06 | 50.64405 | 9.99703 | 35096 ft | 461 kts | 63° |
| 2026-05-07 19:07 | 50.67783 | 10.08321 | 35096 ft | 464 kts | 56° |
| 2026-05-07 19:07 | 50.71301 | 10.16866 | 35099 ft | 464 kts | 56° |
| 2026-05-07 19:08 | 50.74813 | 10.25418 | 35097 ft | 464 kts | 56° |
| 2026-05-07 19:08 | 50.78320 | 10.33975 | 35098 ft | 464 kts | 56° |
| 2026-05-07 19:09 | 50.81816 | 10.42555 | 35103 ft | 464 kts | 57° |
| 2026-05-07 19:09 | 50.85291 | 10.51140 | 35098 ft | 463 kts | 57° |
| 2026-05-07 19:10 | 50.88755 | 10.59736 | 34708 ft | 461 kts | 57° |
| 2026-05-07 19:10 | 50.90479 | 10.64013 | 34055 ft | 461 kts | 57° |
| 2026-05-07 19:10 | 50.92204 | 10.68292 | 33285 ft | 460 kts | 57° |
| 2026-05-07 19:11 | 50.93920 | 10.72550 | 32611 ft | 457 kts | 57° |
| 2026-05-07 19:11 | 50.95620 | 10.76779 | 32073 ft | 451 kts | 57° |
| 2026-05-07 19:11 | 50.97294 | 10.80956 | 31528 ft | 446 kts | 57° |
| 2026-05-07 19:11 | 50.98950 | 10.85091 | 30991 ft | 441 kts | 57° |
| 2026-05-07 19:12 | 51.00583 | 10.89179 | 30467 ft | 436 kts | 57° |
| 2026-05-07 19:12 | 51.02195 | 10.93227 | 29936 ft | 431 kts | 57° |
| 2026-05-07 19:12 | 51.03787 | 10.97236 | 29344 ft | 427 kts | 57° |
| 2026-05-07 19:12 | 51.05362 | 11.01208 | 28751 ft | 423 kts | 57° |
| 2026-05-07 19:13 | 51.06922 | 11.05141 | 28216 ft | 419 kts | 57° |
| 2026-05-07 19:13 | 51.08475 | 11.09059 | 28052 ft | 418 kts | 57° |
| 2026-05-07 19:13 | 51.11561 | 11.16866 | 28100 ft | 420 kts | 57° |
| 2026-05-07 19:14 | 51.14662 | 11.24742 | 28088 ft | 420 kts | 57° |
| 2026-05-07 19:14 | 51.17782 | 11.32662 | 28099 ft | 419 kts | 57° |
| 2026-05-07 19:15 | 51.19325 | 11.36587 | 27811 ft | 416 kts | 57° |
| 2026-05-07 19:15 | 51.20852 | 11.40481 | 27233 ft | 412 kts | 57° |
| 2026-05-07 19:15 | 51.22344 | 11.44296 | 26681 ft | 409 kts | 57° |
| 2026-05-07 19:15 | 51.23841 | 11.48135 | 26129 ft | 406 kts | 57° |
| 2026-05-07 19:16 | 51.25326 | 11.51952 | 25594 ft | 402 kts | 57° |
| 2026-05-07 19:16 | 51.26794 | 11.55728 | 25183 ft | 399 kts | 57° |
| 2026-05-07 19:16 | 51.28258 | 11.59498 | 25074 ft | 399 kts | 57° |
| 2026-05-07 19:16 | 51.29722 | 11.63276 | 25100 ft | 400 kts | 57° |
| 2026-05-07 19:17 | 51.31185 | 11.67057 | 25103 ft | 400 kts | 57° |
| 2026-05-07 19:17 | 51.32670 | 11.70896 | 25105 ft | 400 kts | 57° |
| 2026-05-07 19:17 | 51.34131 | 11.74680 | 25104 ft | 400 kts | 57° |
| 2026-05-07 19:17 | 51.35588 | 11.78463 | 25108 ft | 400 kts | 57° |
| 2026-05-07 19:18 | 51.37019 | 11.82178 | 25108 ft | 400 kts | 57° |
| 2026-05-07 19:18 | 51.38486 | 11.85990 | 25106 ft | 400 kts | 57° |
| 2026-05-07 19:18 | 51.39942 | 11.89780 | 25104 ft | 400 kts | 57° |
| 2026-05-07 19:18 | 51.41396 | 11.93572 | 25108 ft | 399 kts | 57° |
| 2026-05-07 19:19 | 51.42849 | 11.97365 | 25110 ft | 399 kts | 57° |
| 2026-05-07 19:19 | 51.44299 | 12.01155 | 25112 ft | 399 kts | 57° |
| 2026-05-07 19:19 | 51.45750 | 12.04954 | 25113 ft | 399 kts | 57° |
| 2026-05-07 19:19 | 51.47197 | 12.08751 | 25113 ft | 399 kts | 57° |
| 2026-05-07 19:20 | 51.48644 | 12.12551 | 25112 ft | 399 kts | 57° |
| 2026-05-07 19:20 | 51.50082 | 12.16339 | 24774 ft | 398 kts | 57° |
| 2026-05-07 19:20 | 51.51520 | 12.20135 | 24170 ft | 398 kts | 57° |
| 2026-05-07 19:20 | 51.52956 | 12.23925 | 23566 ft | 396 kts | 57° |
| 2026-05-07 19:21 | 51.54387 | 12.27701 | 22872 ft | 395 kts | 57° |
| 2026-05-07 19:21 | 51.55815 | 12.31473 | 22194 ft | 395 kts | 57° |
| 2026-05-07 19:21 | 51.57238 | 12.35242 | 21525 ft | 394 kts | 57° |
| 2026-05-07 19:21 | 51.58646 | 12.38987 | 21168 ft | 386 kts | 57° |
| 2026-05-07 19:22 | 51.60010 | 12.42624 | 21031 ft | 375 kts | 57° |
| 2026-05-07 19:22 | 51.61348 | 12.46191 | 20593 ft | 370 kts | 57° |
| 2026-05-07 19:22 | 51.62671 | 12.49718 | 20182 ft | 367 kts | 57° |
| 2026-05-07 19:22 | 51.64000 | 12.53238 | 20080 ft | 367 kts | 56° |
| 2026-05-07 19:23 | 51.65629 | 12.56332 | 19771 ft | 361 kts | 39° |
| 2026-05-07 19:23 | 51.67712 | 12.58536 | 19350 ft | 357 kts | 29° |
| 2026-05-07 19:23 | 51.69837 | 12.60510 | 19104 ft | 349 kts | 29° |
| 2026-05-07 19:23 | 51.71925 | 12.62447 | 18732 ft | 345 kts | 30° |
| 2026-05-07 19:24 | 51.73997 | 12.64374 | 18331 ft | 343 kts | 30° |
| 2026-05-07 19:24 | 51.76057 | 12.66295 | 17870 ft | 341 kts | 30° |
| 2026-05-07 19:24 | 51.78100 | 12.68208 | 17403 ft | 339 kts | 30° |
| 2026-05-07 19:24 | 51.80134 | 12.70116 | 16957 ft | 337 kts | 30° |
| 2026-05-07 19:25 | 51.82156 | 12.72018 | 16524 ft | 335 kts | 30° |
| 2026-05-07 19:25 | 51.84168 | 12.73913 | 16108 ft | 334 kts | 30° |
| 2026-05-07 19:25 | 51.86170 | 12.75800 | 15701 ft | 332 kts | 30° |
| 2026-05-07 19:25 | 51.88160 | 12.77678 | 15300 ft | 331 kts | 30° |
| 2026-05-07 19:26 | 51.90140 | 12.79549 | 14999 ft | 326 kts | 30° |
| 2026-05-07 19:26 | 51.92120 | 12.81219 | 14874 ft | 316 kts | 25° |
| 2026-05-07 19:26 | 51.94082 | 12.82716 | 14726 ft | 308 kts | 25° |
| 2026-05-07 19:26 | 51.96011 | 12.84171 | 14451 ft | 305 kts | 25° |
| 2026-05-07 19:27 | 51.97925 | 12.85611 | 14133 ft | 301 kts | 25° |
| 2026-05-07 19:27 | 51.99821 | 12.87036 | 13519 ft | 299 kts | 25° |
| 2026-05-07 19:27 | 52.01706 | 12.88449 | 12891 ft | 297 kts | 25° |
| 2026-05-07 19:27 | 52.03568 | 12.89744 | 12273 ft | 294 kts | 15° |
| 2026-05-07 19:28 | 52.05571 | 12.90264 | 11666 ft | 292 kts | 6° |
| 2026-05-07 19:28 | 52.07606 | 12.90549 | 11302 ft | 292 kts | 5° |
| 2026-05-07 19:28 | 52.09625 | 12.90809 | 10977 ft | 290 kts | 5° |
| 2026-05-07 19:28 | 52.11633 | 12.91064 | 10647 ft | 289 kts | 5° |
| 2026-05-07 19:29 | 52.13627 | 12.91314 | 10259 ft | 285 kts | 5° |
| 2026-05-07 19:29 | 52.15594 | 12.91562 | 9630 ft | 283 kts | 5° |
| 2026-05-07 19:29 | 52.17552 | 12.91817 | 8988 ft | 280 kts | 8° |
| 2026-05-07 19:29 | 52.19400 | 12.92659 | 8366 ft | 275 kts | 25° |
| 2026-05-07 19:30 | 52.20925 | 12.94188 | 7850 ft | 268 kts | 41° |
| 2026-05-07 19:30 | 52.22138 | 12.96319 | 7667 ft | 248 kts | 54° |
| 2026-05-07 19:30 | 52.22968 | 12.98787 | 7000 ft | 250 kts | 69° |
| 2026-05-07 19:30 | 52.23610 | 13.01431 | 6344 ft | 252 kts | 68° |
| 2026-05-07 19:31 | 52.24251 | 13.04066 | 5828 ft | 246 kts | 68° |
| 2026-05-07 19:31 | 52.24868 | 13.06605 | 5473 ft | 235 kts | 68° |
| 2026-05-07 19:31 | 52.25459 | 13.09040 | 5151 ft | 228 kts | 68° |
| 2026-05-07 19:31 | 52.26039 | 13.11436 | 4844 ft | 224 kts | 68° |
| 2026-05-07 19:32 | 52.26587 | 13.13702 | 4531 ft | 215 kts | 68° |
| 2026-05-07 19:32 | 52.27128 | 13.15938 | 4247 ft | 208 kts | 68° |
| 2026-05-07 19:32 | 52.27650 | 13.18101 | 3964 ft | 202 kts | 68° |
| 2026-05-07 19:32 | 52.28156 | 13.20199 | 3689 ft | 195 kts | 68° |
| 2026-05-07 19:33 | 52.28643 | 13.22220 | 3453 ft | 186 kts | 68° |
| 2026-05-07 19:33 | 52.29102 | 13.24125 | 3188 ft | 176 kts | 68° |
| 2026-05-07 19:33 | 52.29540 | 13.25945 | 2947 ft | 170 kts | 68° |
| 2026-05-07 19:33 | 52.29967 | 13.27722 | 2724 ft | 167 kts | 68° |
| 2026-05-07 19:34 | 52.30385 | 13.29462 | 2498 ft | 160 kts | 68° |
| 2026-05-07 19:34 | 52.30773 | 13.31077 | 2287 ft | 145 kts | 68° |
| 2026-05-07 19:34 | 52.31128 | 13.32557 | 2091 ft | 137 kts | 68° |
| 2026-05-07 19:34 | 52.31471 | 13.33987 | 1902 ft | 134 kts | 68° |
| 2026-05-07 19:35 | 52.31809 | 13.35400 | 1720 ft | 133 kts | 68° |
| 2026-05-07 19:35 | 52.32147 | 13.36811 | 1529 ft | 133 kts | 68° |
| 2026-05-07 19:35 | 52.32485 | 13.38225 | 1349 ft | 134 kts | 68° |
| 2026-05-07 19:35 | 52.32824 | 13.39643 | 1155 ft | 134 kts | 68° |
| 2026-05-07 19:36 | 52.33165 | 13.41068 | 961 ft | 136 kts | 68° |
| 2026-05-07 19:36 | 52.33511 | 13.42517 | 785 ft | 138 kts | 68° |
| 2026-05-07 19:36 | 52.33860 | 13.43990 | 602 ft | 140 kts | 68° |
| 2026-05-07 19:36 | 52.34216 | 13.45477 | 377 ft | 140 kts | 68° |
| 2026-05-07 19:37 | 52.34566 | 13.46967 | 205 ft | 140 kts | 68° |
| 2026-05-07 19:37 | 52.34898 | 13.48344 | 160 ft | 110 kts | 68° |
| 2026-05-07 19:37 | 52.35115 | 13.49249 | 158 ft | 62 kts | 68° |
| 2026-05-07 19:37 | 52.35212 | 13.49641 | 157 ft | 31 kts | 66° |
| 2026-05-07 19:38 | 52.35321 | 13.49917 | 154 ft | 18 kts | 44° |
| 2026-05-07 19:38 | 52.35423 | 13.50061 | 152 ft | 21 kts | 41° |
| 2026-05-07 19:38 | 52.35519 | 13.50190 | 147 ft | 20 kts | 38° |
| 2026-05-07 19:38 | 52.35612 | 13.50344 | 148 ft | 20 kts | 64° |
| 2026-05-07 19:39 | 52.35664 | 13.50563 | 148 ft | 20 kts | 69° |
| 2026-05-07 19:39 | 52.35740 | 13.50680 | 147 ft | 17 kts | 348° |
| 2026-05-07 19:39 | 52.35846 | 13.50628 | 149 ft | 13 kts | 356° |
| 2026-05-07 19:39 | 52.35896 | 13.50717 | 152 ft | 9 kts | 70° |
| 2026-05-07 19:40 | 52.35920 | 13.50833 | 153 ft | 16 kts | 72° |
| 2026-05-07 19:40 | 52.35955 | 13.50987 | 157 ft | 12 kts | 69° |
| 2026-05-07 19:40 | 52.36000 | 13.51090 | 156 ft | 10 kts | 5° |
| 2026-05-07 19:40 | 52.36062 | 13.51052 | 155 ft | 3 kts | 339° |